HESH

Sharm El Sheikh International Airport

Sharm el-Sheikh, Egypt
METAR HESH 221700Z 20007KT CAVOK 38/00 Q1011 NOSIG
Observed Flight Rules
May-22 @ 17:00 UTC (56 minutes ago) Visual Flight Rules
Wind Visibility Clouds
200° at 7 knots 10,000+ meters
  • Clear skies
Temperatures Readings
Current 38°C / 100°F
Dewpoint 0°C / 32°F
Humidity 9%
Altimeter 29.85" Hg
Pressure 1011 hPa
Elevation 50
METAR HESH 221700Z 20007KT CAVOK 38/00 Q1011 NOSIG
Observed Flight Rules
May-22 @ 17:00 UTC
(56 minutes ago)
VFR
Wind Visibility
200° at 7 knots 10,000+ meters
Clouds
  • Clear skies
Temperature Dewpoint
38°C / 100°F 0°C / 32°F
Humidity Altimeter Pressure
9% 29.85" Hg 1011 hPa